Flight Track Log - Related Links

Times and Time Zones

All times are in EST time to prevent confusion due to time zone crossing. See the N364AC flight status page for this flight to view local times or setup timezone preferences in your user account.

Time Position Orientation Groundspeed Altitude Reporting Facility
EST Latitude Longitude Course Direction KTS MPH feet Rate Location/Type
Sun 11:47:00 AM 26.3626 -81.8636 355° North  Level Estimated
Sun 11:48:00 AM 26.4075 -81.8638 360° North  Level FlightAware Approximate
Sun 11:49:00 AM 26.4524 -81.8640 360° North  Level FlightAware Approximate
Sun 11:50:00 AM 26.4973 -81.8642 360° North  Level FlightAware Approximate
Sun 11:51:00 AM 26.5422 -81.8644 360° North  Level FlightAware Approximate
Sun 11:52:00 AM 26.5871 -81.8645 360° North  Level FlightAware Approximate
Sun 11:53:00 AM 26.6320 -81.8647 360° North  Level FlightAware Approximate
Sun 11:54:00 AM 26.6769 -81.8649 360° North  Level FlightAware Approximate
Sun 11:55:00 AM 26.7218 -81.8651 360° North  Level FlightAware Approximate
Sun 11:56:00 AM 26.7667 -81.8653 360° North  Level FlightAware Approximate
Sun 11:57:00 AM 26.8116 -81.8655 360° North  Level FlightAware Approximate
Sun 11:58:00 AM 26.8565 -81.8657 360° North  Level FlightAware Approximate
Sun 11:58:50 AM 26.7508 -81.9136 345° North 156 180 5,900  Level Miami Center
Sun 11:59:00 AM 26.8982 -81.8845 354° North  Level Estimated
Sun 11:59:50 AM 26.7942 -81.9294 342° North 156 180 5,900  Level Miami Center
Sun 12:00:00 PM 26.9431 -81.8843 North  Level FlightAware Approximate
Sun 12:00:50 PM 26.8333 -81.9450 340° North 165 190 5,900  Level Miami Center
Sun 12:01:00 PM 26.9880 -81.8842 North  Level FlightAware Approximate
Sun 12:01:50 PM 26.8747 -81.9561 347° North 159 183 5,900  Level Miami Center
Sun 12:02:00 PM 27.0295 -81.9032 336° Northwest  Level Estimated
Sun 12:02:50 PM 26.9161 -81.9625 352° North 159 183 5,900  Level Miami Center
Sun 12:03:00 PM 27.0729 -81.9162 345° North  Level FlightAware Approximate
Sun 12:03:50 PM 26.9556 -81.9667 355° North 159 183 5,900  Level Miami Center
Sun 12:04:00 PM 27.1163 -81.9292 345° North  Level FlightAware Approximate
Sun 12:04:50 PM 26.9992 -81.9733 352° North 159 183 5,900  Level Miami Center
Sun 12:05:50 PM 27.0489 -81.9825 351° North 159 183 5,900  Level Miami Center
Sun 12:06:50 PM 27.0947 -81.9892 353° North 159 183 5,900  Level Miami Center
Sun 12:07:50 PM 27.1383 -81.9958 352° North 159 183 5,900  Level Miami Center
Sun 12:08:50 PM 27.1819 -82.0000 355° North 159 183 5,900  Level Miami Center
Sun 12:09:50 PM 27.2278 -81.9997 360° North 159 183 5,900  Level Miami Center
Sun 12:10:50 PM 27.2739 -81.9994 360° North 159 183 5,900  Level Miami Center
Sun 12:11:50 PM 27.3197 -82.0014 358° North 159 183 5,900  Level Miami Center
Sun 12:12:50 PM 27.3678 -82.0011 360° North 159 183 5,900  Level Miami Center
Sun 12:13:50 PM 27.4136 -82.0033 358° North 159 183 5,900  Level Miami Center
Sun 12:14:50 PM 27.4594 -82.0031 360° North 159 183 5,900  Level Miami Center
Sun 12:15:50 PM 27.5075 -82.0028 360° North 159 183 5,900  Level Miami Center
Sun 12:16:50 PM 27.5450 -81.9997 North 159 183 5,900  Level Miami Center
Sun 12:17:50 PM 27.5992 -82.0022 358° North 159 183 5,900  Level Miami Center
Sun 12:18:50 PM 27.6472 -82.0019 360° North 164 189 5,900  Level Miami Center
Sun 12:19:50 PM 27.6931 -82.0064 355° North 164 189 5,900  Level Miami Center
Sun 12:20:50 PM 27.7347 -82.0061 360° North 157 181 5,900  Level Miami Center
Sun 12:21:51 PM 27.7847 -82.0058 360° North 162 186 5,900  Level Miami Center
Sun 12:22:50 PM 27.8328 -82.0081 358° North 168 193 5,900  Level Miami Center
Sun 12:23:50 PM 27.8786 -82.0103 358° North 168 193 5,900  Level Miami Center
Sun 12:24:50 PM 27.9267 -82.0100 360° North 168 193 5,900  Level Miami Center
Sun 12:25:50 PM 27.9744 -82.0122 358° North 168 193 5,900  Level Miami Center
Sun 12:27:06 PM 28.0333 -82.0333 342° North 174 200 5,900  Level Tampa TRACON
Sun 12:28:06 PM 28.0833 -82.0667 330° Northwest 175 201 5,900  Level Tampa TRACON
Sun 12:29:07 PM 28.1333 -82.0833 344° North 174 200 5,900  Level Tampa TRACON
Sun 12:30:07 PM 28.1833 -82.0833 360° North 174 200 5,900  Level Tampa TRACON
Sun 12:31:07 PM 28.2167 -82.1000 336° Northwest 172 198 5,900  Level Tampa TRACON
Sun 12:32:07 PM 28.2667 -82.1000 360° North 172 198 5,900  Level Tampa TRACON
Sun 12:33:07 PM 28.3167 -82.1167 344° North 174 200 5,900 50 Level Tampa TRACON
Sun 12:34:07 PM 28.3667 -82.1333 344° North 172 198 6,000  Climbing Tampa TRACON
Sun 12:35:07 PM 28.4000 -82.1667 319° Northwest 175 201 5,900 -53 Descending Tampa TRACON
Sun 12:36:01 PM 28.4500 -82.1833 344° North 175 201 5,900 53 Level Tampa TRACON
Sun 12:37:01 PM 28.5000 -82.2000 344° North 176 203 6,000 40 Climbing Tampa TRACON
Sun 12:38:32 PM 28.5553 -82.2378 329° Northwest 176 203 6,000 -41 Level Jacksonville Center
Sun 12:39:27 PM 28.5969 -82.2589 336° Northwest 176 203 5,900 -51 Descending Jacksonville Center
Sun 12:40:29 PM 28.6408 -82.2800 337° Northwest 175 201 5,900 47 Level Jacksonville Center
Sun 12:41:36 PM 28.6911 -82.3081 334° Northwest 174 200 6,000 47 Climbing Jacksonville Center
Sun 12:42:37 PM 28.7350 -82.3314 335° Northwest 173 199 6,000  Level Jacksonville Center
Sun 12:43:39 PM 28.7811 -82.3550 336° Northwest 172 198 6,000  Level Jacksonville Center
Sun 12:44:40 PM 28.8250 -82.3806 333° Northwest 173 199 6,000 -49 Level Jacksonville Center
Sun 12:45:41 PM 28.8689 -82.4042 335° Northwest 174 200 5,900 -49 Descending Jacksonville Center
Sun 12:46:43 PM 28.9108 -82.4278 334° Northwest 172 198 5,900  Level Jacksonville Center
Sun 12:47:50 PM 28.9611 -82.4558 334° Northwest 172 198 5,900 49 Level Jacksonville Center
Sun 12:48:45 PM 29.0008 -82.4772 335° Northwest 173 199 6,000 49 Climbing Jacksonville Center
Sun 12:49:52 PM 29.0508 -82.5031 336° Northwest 172 198 6,000 -47 Level Jacksonville Center
Sun 12:50:54 PM 29.0928 -82.5314 329° Northwest 174 200 5,900 -51 Descending Jacksonville Center
Sun 12:51:49 PM 29.1325 -82.5503 337° Northwest 171 197 5,900 52 Level Jacksonville Center
Sun 12:52:50 PM 29.1764 -82.5739 335° Northwest 170 196 6,000 47 Climbing Jacksonville Center
Sun 12:53:58 PM 29.2264 -82.5975 338° Northwest 173 199 6,000  Level Jacksonville Center
Sun 12:55:05 PM 29.2725 -82.6258 332° Northwest 171 197 6,000 -52 Level Jacksonville Center
Sun 12:55:54 PM 29.3100 -82.6472 334° Northwest 172 198 5,900 -49 Descending Jacksonville Center
Sun 12:57:08 PM 29.3706 -82.6542 354° North 179 206 5,900 47 Level Jacksonville Center
Sun 12:58:03 PM 29.4144 -82.6589 355° North 176 203 6,000 52 Climbing Jacksonville Center
Sun 12:59:04 PM 29.4625 -82.6636 355° North 176 203 6,000  Level Jacksonville Center
Sun 01:00:12 PM 29.5147 -82.6731 351° North 175 201 6,000 -49 Level Jacksonville Center
Sun 01:01:07 PM 29.5606 -82.6778 355° North 175 201 5,900 -58 Descending Jacksonville Center
Sun 01:01:56 PM 29.6025 -82.6800 357° North 177 204 5,900  Level Jacksonville Center
Sun 01:02:08 PM 29.6150 -82.6847 342° North 176 203 5,900  Level Jacksonville Center
Sun 01:02:56 PM 29.6525 -82.6847 360° North 177 204 5,900 109 Level Jacksonville Center
Sun 01:03:03 PM 29.6589 -82.6869 343° North 177 204 6,000  Climbing Jacksonville Center
Sun 01:03:56 PM 29.6986 -82.7014 342° North 189 217 5,900 -53 Descending Jacksonville Center
Sun 01:04:56 PM 29.7403 -82.7250 334° Northwest 183 211 5,900  Level Jacksonville Center
Sun 01:05:56 PM 29.7842 -82.7489 335° Northwest 172 198 5,900  Level Jacksonville Center
Sun 01:06:56 PM 29.8258 -82.7753 331° Northwest 172 198 5,900  Level Jacksonville Center
Sun 01:07:56 PM 29.8678 -82.8017 331° Northwest 172 198 5,900  Level Jacksonville Center
Sun 01:08:56 PM 29.9094 -82.8278 331° Northwest 167 192 5,900  Level Jacksonville Center
Sun 01:09:56 PM 29.9533 -82.8519 334° Northwest 167 192 5,900  Level Jacksonville Center
Sun 01:10:56 PM 29.9950 -82.8758 334° Northwest 167 192 5,900  Level Jacksonville Center
Sun 01:11:56 PM 30.0369 -82.9022 331° Northwest 167 192 5,900  Level Jacksonville Center
Sun 01:12:56 PM 30.0786 -82.9286 331° Northwest 167 192 5,900  Level Jacksonville Center
Sun 01:13:56 PM 30.1203 -82.9525 334° Northwest 167 192 5,900  Level Jacksonville Center
Sun 01:14:56 PM 30.1622 -82.9792 331° Northwest 167 192 5,900  Level Jacksonville Center
Sun 01:15:56 PM 30.2017 -83.0031 332° Northwest 167 192 5,900  Level Jacksonville Center
Sun 01:16:56 PM 30.2436 -83.0272 334° Northwest 167 192 5,900 61 Level Jacksonville Center
Sun 01:17:35 PM 30.2686 -83.0442 330° Northwest 167 192 6,000  Climbing Jacksonville Center
Sun 01:17:56 PM 30.2853 -83.0514 339° North 167 192 5,900  Descending Jacksonville Center
Sun 01:18:11 PM 30.2956 -83.0611 321° Northwest 165 190 6,000  Climbing Jacksonville Center
Sun 01:18:56 PM 30.3269 -83.0756 338° Northwest 167 192 5,900  Descending Jacksonville Center
Sun 01:19:06 PM 30.3311 -83.0803 316° Northwest 167 192 6,000 171 Climbing Jacksonville Center
Sun 01:20:06 PM 30.3728 -83.1069 331° Northwest 168 193 6,100 -55 Climbing Jacksonville Center
Sun 01:20:56 PM 30.4083 -83.1261 335° Northwest 167 192 5,900 -98 Descending Jacksonville Center
Sun 01:21:07 PM 30.4144 -83.1333 314° West 170 196 6,000  Climbing Jacksonville Center
Sun 01:21:56 PM 30.4519 -83.1528 336° Northwest 167 192 5,900  Descending Jacksonville Center
Sun 01:22:08 PM 30.4583 -83.1600 316° Northwest 170 196 6,000  Climbing Jacksonville Center
Sun 01:22:56 PM 30.4917 -83.1769 336° Northwest 167 192 5,900  Descending Jacksonville Center
Sun 01:23:08 PM 30.5000 -83.1842 323° Northwest 170 196 6,000  Climbing Jacksonville Center
Sun 01:23:56 PM 30.5356 -83.2014 337° Northwest 167 192 5,900  Descending Jacksonville Center
Sun 01:24:09 PM 30.5439 -83.2086 323° Northwest 170 196 6,000  Climbing Jacksonville Center
Sun 01:24:56 PM 30.5792 -83.2303 332° Northwest 167 192 5,900  Descending Jacksonville Center
Sun 01:25:10 PM 30.5856 -83.2353 326° Northwest 171 197 6,000  Climbing Jacksonville Center
Sun 01:25:56 PM 30.6189 -83.2547 333° Northwest 167 192 5,900  Descending Jacksonville Center
Sun 01:26:10 PM 30.6292 -83.2619 329° Northwest 170 196 6,000  Climbing Jacksonville Center
Sun 01:26:56 PM 30.6606 -83.2767 338° Northwest 167 192 5,900  Descending Jacksonville Center
Sun 01:27:11 PM 30.6708 -83.2861 322° Northwest 168 193 6,000 79 Climbing Jacksonville Center
Sun 01:28:12 PM 30.7128 -83.3131 331° Northwest 167 192 6,000  Level Jacksonville Center
Sun 01:29:12 PM 30.7522 -83.3375 332° Northwest 167 192 6,000  Level Jacksonville Center
Sun 01:30:19 PM 30.8003 -83.3642 335° Northwest 166 191 6,000  Level Jacksonville Center
Sun 01:31:20 PM 30.8417 -83.3933 329° Northwest 166 191 6,000  Level Jacksonville Center
Sun 01:32:21 PM 30.8814 -83.4153 335° Northwest 167 192 6,000  Level Jacksonville Center
Sun 01:33:21 PM 30.9250 -83.4422 332° Northwest 167 192 6,000  Level Jacksonville Center
Sun 01:34:22 PM 30.9647 -83.4667 332° Northwest 166 191 6,000  Level Jacksonville Center
Sun 01:35:22 PM 31.0064 -83.4889 335° Northwest 165 190 6,000 -64 Level Jacksonville Center
Sun 01:35:56 PM 31.0314 -83.5011 337° Northwest 164 189 5,900 98 Descending Jacksonville Center
Sun 01:36:23 PM 31.0481 -83.5158 323° Northwest 164 189 6,100  Climbing Jacksonville Center
Sun 01:36:56 PM 31.0689 -83.5281 333° Northwest 164 189 5,900  Descending Jacksonville Center
Sun 01:37:18 PM 31.0856 -83.5378 333° Northwest 164 189 6,100  Climbing Jacksonville Center
Sun 01:37:56 PM 31.1103 -83.5550 329° Northwest 164 189 5,900 -98 Descending Jacksonville Center
Sun 01:38:19 PM 31.1228 -83.5625 333° Northwest 162 186 6,000  Climbing Jacksonville Center
Sun 01:38:56 PM 31.1500 -83.5772 335° Northwest 164 189 5,900  Descending Jacksonville Center
Sun 01:39:26 PM 31.1686 -83.5894 331° Northwest 161 185 6,000  Climbing Jacksonville Center
Sun 01:39:56 PM 31.1833 -83.5969 336° Northwest 159 183 5,900 100 Descending Jacksonville Center
Sun 01:40:26 PM 31.2103 -83.6142 331° Northwest 162 186 6,100  Climbing Jacksonville Center
Sun 01:40:56 PM 31.2292 -83.6264 331° Northwest 159 183 5,900 -98 Descending Jacksonville Center
Sun 01:41:27 PM 31.2478 -83.6386 331° Northwest 161 185 6,000  Climbing Jacksonville Center
Sun 01:41:56 PM 31.2686 -83.6486 338° Northwest 159 183 5,900 109 Descending Jacksonville Center
Sun 01:42:22 PM 31.2872 -83.6633 326° Northwest 163 188 6,100  Climbing Jacksonville Center
Sun 01:42:56 PM 31.3103 -83.6781 331° Northwest 175 201 5,900 -128 Descending Jacksonville Center
Sun 01:43:56 PM 31.3433 -83.6953 336° Northwest 175 201 5,900  Level Jacksonville Center
Sun 01:44:56 PM 31.3831 -83.7225 330° Northwest 170 196 5,900  Level Jacksonville Center
Sun 01:45:56 PM 31.4244 -83.7447 335° Northwest 164 189 5,900  Level Jacksonville Center
Sun 01:46:56 PM 31.4619 -83.7694 331° Northwest 159 183 5,900  Level Jacksonville Center
Sun 01:47:56 PM 31.5014 -83.7942 332° Northwest 159 183 5,900  Level Jacksonville Center
Sun 01:48:56 PM 31.5431 -83.8189 333° Northwest 159 183 5,900  Level Jacksonville Center
Sun 01:49:56 PM 31.5806 -83.8436 331° Northwest 159 183 5,900  Level Jacksonville Center
Sun 01:50:56 PM 31.6200 -83.8686 332° Northwest 159 183 5,900  Level Jacksonville Center
Sun 01:51:56 PM 31.6594 -83.8908 334° Northwest 159 183 5,900 50 Level Jacksonville Center
Sun 01:52:56 PM 31.6989 -83.9158 332° Northwest 164 189 6,000  Climbing Jacksonville Center
Sun 01:53:56 PM 31.7383 -83.9406 332° Northwest 164 189 5,900 -50 Descending Jacksonville Center
Sun 01:54:56 PM 31.7778 -83.9656 332° Northwest 164 189 5,900  Level Jacksonville Center
Sun 01:56:57 PM 31.8667 -84.0167 334° Northwest 162 186 5,900  Level Atlanta TRACON
Sun 01:57:57 PM 31.9000 -84.0333 337° Northwest 164 189 5,900  Level Atlanta TRACON
Sun 01:58:57 PM 31.9333 -84.0667 320° Northwest 162 186 5,900 50 Level Atlanta TRACON
Sun 01:59:57 PM 31.9833 -84.0833 344° North 160 184 6,000  Climbing Atlanta TRACON
Sun 02:00:57 PM 32.0167 -84.1167 320° Northwest 161 185 5,900 -50 Descending Atlanta TRACON
Sun 02:01:57 PM 32.0667 -84.1333 344° North 159 183 5,900  Level Atlanta TRACON
Sun 02:02:57 PM 32.1000 -84.1667 320° Northwest 165 190 5,900 50 Level Atlanta TRACON
Sun 02:03:57 PM 32.1333 -84.1833 337° Northwest 165 190 6,000  Climbing Atlanta TRACON
Sun 02:04:57 PM 32.1833 -84.2167 331° Northwest 166 191 5,900 -50 Descending Atlanta TRACON
Sun 02:05:57 PM 32.2333 -84.2500 331° Northwest 163 188 5,900  Level Atlanta TRACON
Sun 02:06:57 PM 32.2667 -84.2667 337° Northwest 165 190 5,900 52 Level Atlanta TRACON
Sun 02:07:52 PM 32.3000 -84.3000 320° Northwest 165 190 6,000 53 Climbing Atlanta TRACON
Sun 02:08:51 PM 32.3500 -84.3167 344° North 164 189 6,000 -50 Level Atlanta TRACON
Sun 02:09:51 PM 32.3833 -84.3500 320° Northwest 164 189 5,900 -50 Descending Atlanta TRACON
Sun 02:10:52 PM 32.4167 -84.3667 337° Northwest 164 189 5,900  Level Atlanta TRACON
Sun 02:11:52 PM 32.4667 -84.4000 331° Northwest 164 189 5,900  Level Atlanta TRACON
Sun 02:12:52 PM 32.5000 -84.4167 337° Northwest 165 190 5,900  Level Atlanta TRACON
Sun 02:13:52 PM 32.5500 -84.4500 331° Northwest 167 192 5,900  Level Atlanta TRACON
Sun 02:14:51 PM 32.5833 -84.4667 337° Northwest 164 189 5,900  Level Atlanta TRACON
Sun 02:15:51 PM 32.6333 -84.5000 331° Northwest 166 191 5,900  Level Atlanta TRACON
Sun 02:16:51 PM 32.6667 -84.5167 337° Northwest 161 185 5,900 50 Level Atlanta TRACON
Sun 02:17:52 PM 32.7000 -84.5500 320° Northwest 167 192 6,000 -50 Climbing Atlanta TRACON
Sun 02:18:52 PM 32.7500 -84.5833 331° Northwest 168 193 5,800 -350 Descending Atlanta TRACON
Sun 02:19:52 PM 32.7833 -84.6000 337° Northwest 183 211 5,300 -400 Descending Atlanta TRACON
Sun 02:20:52 PM 32.8333 -84.6333 331° Northwest 174 200 5,000 -150 Descending Atlanta TRACON
Sun 02:21:52 PM 32.8667 -84.6667 320° Northwest 170 196 5,000  Level Atlanta TRACON
Sun 02:22:52 PM 32.9167 -84.6833 344° North 166 191 5,000 50 Level Atlanta TRACON
Sun 02:23:52 PM 32.9500 -84.7167 320° Northwest 160 184 5,100  Climbing Atlanta TRACON
Sun 02:24:52 PM 33.0000 -84.7333 344° North 160 184 5,000 -50 Descending Atlanta TRACON
Sun 02:25:52 PM 33.0333 -84.7667 320° Northwest 158 182 5,000 50 Level Atlanta TRACON
Sun 02:26:52 PM 33.0667 -84.7833 337° Northwest 159 183 5,100 -50 Climbing Atlanta TRACON
Sun 02:27:52 PM 33.1167 -84.8167 331° Northwest 160 184 4,900 -350 Descending Atlanta TRACON
Sun 02:28:52 PM 33.1500 -84.8333 337° Northwest 165 190 4,400 -500 Descending Atlanta TRACON
Sun 02:29:52 PM 33.1833 -84.8667 320° Northwest 162 186 3,900 -200 Descending Atlanta TRACON
Sun 02:30:52 PM 33.2333 -84.8833 344° North 157 181 4,000 50 Climbing Atlanta TRACON
Sun 02:31:52 PM 33.2667 -84.9167 320° Northwest 154 177 4,000  Level Atlanta TRACON
Sun 02:32:52 PM 33.3000 -84.9333 337° Northwest 154 177 4,000 -150 Level Atlanta TRACON
Sun 02:33:52 PM 33.3333 -84.9667 320° Northwest 158 182 3,700 -300 Descending Atlanta TRACON
Sun 02:34:52 PM 33.3833 -85.0000 331° Northwest 161 185 3,400 -400 Descending Atlanta TRACON
Sun 02:35:52 PM 33.4167 -85.0000 360° North 172 198 2,900 -500 Descending Atlanta TRACON

Login

Don't have an account? Register now (free) for customized features, flight alerts, and more!